sensor_id;sensor_type;location;lat;lon;timestamp;temperature;humidity
36280;DHT22;22317;47.936;12.742;2022-08-19T00:00:35;17.50;58.20
36280;DHT22;22317;47.936;12.742;2022-08-19T00:03:02;17.50;58.30
36280;DHT22;22317;47.936;12.742;2022-08-19T00:05:27;17.50;58.30
36280;DHT22;22317;47.936;12.742;2022-08-19T00:07:53;17.40;58.40
36280;DHT22;22317;47.936;12.742;2022-08-19T00:10:20;17.40;58.50
36280;DHT22;22317;47.936;12.742;2022-08-19T00:12:46;17.40;58.60
36280;DHT22;22317;47.936;12.742;2022-08-19T00:15:14;17.40;58.70
36280;DHT22;22317;47.936;12.742;2022-08-19T00:17:42;17.40;58.90
36280;DHT22;22317;47.936;12.742;2022-08-19T00:20:12;17.40;58.90
36280;DHT22;22317;47.936;12.742;2022-08-19T00:22:39;17.40;58.90
36280;DHT22;22317;47.936;12.742;2022-08-19T00:25:07;17.40;58.90
36280;DHT22;22317;47.936;12.742;2022-08-19T00:27:33;17.40;59.00
36280;DHT22;22317;47.936;12.742;2022-08-19T00:29:59;17.40;59.10
36280;DHT22;22317;47.936;12.742;2022-08-19T00:32:25;17.30;59.00
36280;DHT22;22317;47.936;12.742;2022-08-19T00:34:52;17.30;59.10
36280;DHT22;22317;47.936;12.742;2022-08-19T00:37:19;17.30;59.20
36280;DHT22;22317;47.936;12.742;2022-08-19T00:39:45;17.20;59.20
36280;DHT22;22317;47.936;12.742;2022-08-19T00:42:11;17.20;59.40
36280;DHT22;22317;47.936;12.742;2022-08-19T00:44:41;17.20;59.40
36280;DHT22;22317;47.936;12.742;2022-08-19T00:47:08;17.20;59.60
36280;DHT22;22317;47.936;12.742;2022-08-19T00:49:43;17.20;59.70
36280;DHT22;22317;47.936;12.742;2022-08-19T00:52:18;17.20;59.90
36280;DHT22;22317;47.936;12.742;2022-08-19T00:54:45;17.20;59.80
36280;DHT22;22317;47.936;12.742;2022-08-19T00:57:17;17.20;59.80
36280;DHT22;22317;47.936;12.742;2022-08-19T00:59:47;17.20;59.90
36280;DHT22;22317;47.936;12.742;2022-08-19T01:02:15;17.20;59.90
36280;DHT22;22317;47.936;12.742;2022-08-19T01:04:41;17.20;59.90
36280;DHT22;22317;47.936;12.742;2022-08-19T01:07:07;17.20;59.90
36280;DHT22;22317;47.936;12.742;2022-08-19T01:09:33;17.20;59.90
36280;DHT22;22317;47.936;12.742;2022-08-19T01:12:00;17.20;60.00
36280;DHT22;22317;47.936;12.742;2022-08-19T01:14:26;17.20;60.00
36280;DHT22;22317;47.936;12.742;2022-08-19T01:16:53;17.20;60.60
36280;DHT22;22317;47.936;12.742;2022-08-19T01:19:27;17.30;60.00
36280;DHT22;22317;47.936;12.742;2022-08-19T01:22:03;17.30;60.00
36280;DHT22;22317;47.936;12.742;2022-08-19T01:24:31;17.40;59.90
36280;DHT22;22317;47.936;12.742;2022-08-19T01:26:57;17.30;59.80
36280;DHT22;22317;47.936;12.742;2022-08-19T01:29:23;17.40;59.90
36280;DHT22;22317;47.936;12.742;2022-08-19T01:31:49;17.40;59.90
36280;DHT22;22317;47.936;12.742;2022-08-19T01:34:18;17.50;59.90
36280;DHT22;22317;47.936;12.742;2022-08-19T01:36:46;17.50;59.80
36280;DHT22;22317;47.936;12.742;2022-08-19T01:39:23;17.50;59.60
36280;DHT22;22317;47.936;12.742;2022-08-19T01:41:51;17.50;59.50
36280;DHT22;22317;47.936;12.742;2022-08-19T01:44:20;17.50;59.40
36280;DHT22;22317;47.936;12.742;2022-08-19T01:46:49;17.50;59.40
36280;DHT22;22317;47.936;12.742;2022-08-19T01:49:17;17.50;59.40
36280;DHT22;22317;47.936;12.742;2022-08-19T01:51:44;17.50;59.40
36280;DHT22;22317;47.936;12.742;2022-08-19T01:54:12;17.40;59.50
36280;DHT22;22317;47.936;12.742;2022-08-19T01:56:38;17.40;59.50
36280;DHT22;22317;47.936;12.742;2022-08-19T01:59:09;17.40;59.50
36280;DHT22;22317;47.936;12.742;2022-08-19T02:01:35;17.30;59.50
36280;DHT22;22317;47.936;12.742;2022-08-19T02:04:02;17.40;59.60
36280;DHT22;22317;47.936;12.742;2022-08-19T02:06:28;17.40;59.70
36280;DHT22;22317;47.936;12.742;2022-08-19T02:08:55;17.40;59.70
36280;DHT22;22317;47.936;12.742;2022-08-19T02:11:32;17.40;59.70
36280;DHT22;22317;47.936;12.742;2022-08-19T02:14:00;17.30;59.70
36280;DHT22;22317;47.936;12.742;2022-08-19T02:16:30;17.30;59.90
36280;DHT22;22317;47.936;12.742;2022-08-19T02:18:56;17.40;59.90
36280;DHT22;22317;47.936;12.742;2022-08-19T02:21:23;17.40;59.80
36280;DHT22;22317;47.936;12.742;2022-08-19T02:23:50;17.40;60.00
36280;DHT22;22317;47.936;12.742;2022-08-19T02:26:16;17.40;60.00
36280;DHT22;22317;47.936;12.742;2022-08-19T02:28:42;17.40;59.30
36280;DHT22;22317;47.936;12.742;2022-08-19T02:31:10;17.30;59.80
36280;DHT22;22317;47.936;12.742;2022-08-19T02:33:36;17.40;59.90
36280;DHT22;22317;47.936;12.742;2022-08-19T02:36:05;17.40;60.00
36280;DHT22;22317;47.936;12.742;2022-08-19T02:38:31;17.40;59.50
36280;DHT22;22317;47.936;12.742;2022-08-19T02:41:00;17.30;59.90
36280;DHT22;22317;47.936;12.742;2022-08-19T02:43:27;17.30;59.90
36280;DHT22;22317;47.936;12.742;2022-08-19T02:45:54;17.20;59.90
36280;DHT22;22317;47.936;12.742;2022-08-19T02:48:21;17.20;60.00
36280;DHT22;22317;47.936;12.742;2022-08-19T02:50:48;17.20;59.90
36280;DHT22;22317;47.936;12.742;2022-08-19T02:53:16;17.20;60.10
36280;DHT22;22317;47.936;12.742;2022-08-19T02:55:43;17.20;60.20
36280;DHT22;22317;47.936;12.742;2022-08-19T02:58:10;17.20;60.20
36280;DHT22;22317;47.936;12.742;2022-08-19T03:00:41;17.20;60.20
36280;DHT22;22317;47.936;12.742;2022-08-19T03:03:07;17.20;60.20
36280;DHT22;22317;47.936;12.742;2022-08-19T03:05:33;17.20;60.30
36280;DHT22;22317;47.936;12.742;2022-08-19T03:07:59;17.30;60.30
36280;DHT22;22317;47.936;12.742;2022-08-19T03:10:25;17.30;60.20
36280;DHT22;22317;47.936;12.742;2022-08-19T03:12:51;17.30;60.10
36280;DHT22;22317;47.936;12.742;2022-08-19T03:15:16;17.30;59.90
36280;DHT22;22317;47.936;12.742;2022-08-19T03:17:42;17.30;59.90
36280;DHT22;22317;47.936;12.742;2022-08-19T03:20:08;17.20;59.70
36280;DHT22;22317;47.936;12.742;2022-08-19T03:22:34;17.20;59.70
36280;DHT22;22317;47.936;12.742;2022-08-19T03:25:00;17.20;59.90
36280;DHT22;22317;47.936;12.742;2022-08-19T03:27:26;17.30;60.00
36280;DHT22;22317;47.936;12.742;2022-08-19T03:29:52;17.30;60.00
36280;DHT22;22317;47.936;12.742;2022-08-19T03:32:18;17.40;59.90
36280;DHT22;22317;47.936;12.742;2022-08-19T03:34:44;17.40;59.80
36280;DHT22;22317;47.936;12.742;2022-08-19T03:37:11;17.50;59.20
36280;DHT22;22317;47.936;12.742;2022-08-19T03:39:40;17.50;59.60
36280;DHT22;22317;47.936;12.742;2022-08-19T03:42:08;17.50;59.60
36280;DHT22;22317;47.936;12.742;2022-08-19T03:44:34;17.50;59.50
36280;DHT22;22317;47.936;12.742;2022-08-19T03:47:03;17.60;59.50
36280;DHT22;22317;47.936;12.742;2022-08-19T03:49:31;17.60;59.40
36280;DHT22;22317;47.936;12.742;2022-08-19T03:51:58;17.70;59.40
36280;DHT22;22317;47.936;12.742;2022-08-19T03:54:26;17.70;59.20
36280;DHT22;22317;47.936;12.742;2022-08-19T03:56:54;17.70;59.20
36280;DHT22;22317;47.936;12.742;2022-08-19T03:59:30;17.70;59.10
36280;DHT22;22317;47.936;12.742;2022-08-19T04:01:59;17.70;59.00
36280;DHT22;22317;47.936;12.742;2022-08-19T04:04:25;17.70;59.00
36280;DHT22;22317;47.936;12.742;2022-08-19T04:06:52;17.70;59.00
36280;DHT22;22317;47.936;12.742;2022-08-19T04:09:19;17.70;59.00
36280;DHT22;22317;47.936;12.742;2022-08-19T04:11:51;17.60;59.00
36280;DHT22;22317;47.936;12.742;2022-08-19T04:14:24;17.70;59.20
36280;DHT22;22317;47.936;12.742;2022-08-19T04:16:51;17.70;59.20
36280;DHT22;22317;47.936;12.742;2022-08-19T04:19:18;17.70;59.00
36280;DHT22;22317;47.936;12.742;2022-08-19T04:21:46;17.70;59.20
36280;DHT22;22317;47.936;12.742;2022-08-19T04:24:12;17.70;59.40
36280;DHT22;22317;47.936;12.742;2022-08-19T04:26:39;17.70;59.40
36280;DHT22;22317;47.936;12.742;2022-08-19T04:29:08;17.70;59.50
36280;DHT22;22317;47.936;12.742;2022-08-19T04:31:34;17.70;59.50
36280;DHT22;22317;47.936;12.742;2022-08-19T04:34:07;17.70;59.50
36280;DHT22;22317;47.936;12.742;2022-08-19T04:36:36;17.80;59.50
36280;DHT22;22317;47.936;12.742;2022-08-19T04:39:06;17.80;59.60
36280;DHT22;22317;47.936;12.742;2022-08-19T04:41:33;17.80;59.70
36280;DHT22;22317;47.936;12.742;2022-08-19T04:44:17;17.80;59.60
36280;DHT22;22317;47.936;12.742;2022-08-19T04:46:44;17.80;59.60
36280;DHT22;22317;47.936;12.742;2022-08-19T04:49:10;17.80;59.60
36280;DHT22;22317;47.936;12.742;2022-08-19T04:51:39;17.90;59.70
36280;DHT22;22317;47.936;12.742;2022-08-19T04:54:08;17.80;59.70
36280;DHT22;22317;47.936;12.742;2022-08-19T04:56:34;17.80;60.00
36280;DHT22;22317;47.936;12.742;2022-08-19T04:59:00;17.80;59.90
36280;DHT22;22317;47.936;12.742;2022-08-19T05:01:31;17.90;60.00
36280;DHT22;22317;47.936;12.742;2022-08-19T05:04:03;17.90;60.10
36280;DHT22;22317;47.936;12.742;2022-08-19T05:06:30;17.80;60.30
36280;DHT22;22317;47.936;12.742;2022-08-19T05:08:59;17.80;60.50
36280;DHT22;22317;47.936;12.742;2022-08-19T05:11:31;17.80;60.60
36280;DHT22;22317;47.936;12.742;2022-08-19T05:13:57;17.80;60.70
36280;DHT22;22317;47.936;12.742;2022-08-19T05:16:25;17.80;60.90
36280;DHT22;22317;47.936;12.742;2022-08-19T05:18:51;17.80;61.10
36280;DHT22;22317;47.936;12.742;2022-08-19T05:21:36;17.90;61.30
36280;DHT22;22317;47.936;12.742;2022-08-19T05:24:22;17.90;61.20
36280;DHT22;22317;47.936;12.742;2022-08-19T05:26:50;17.90;61.20
36280;DHT22;22317;47.936;12.742;2022-08-19T05:29:19;17.90;61.30
36280;DHT22;22317;47.936;12.742;2022-08-19T05:31:46;17.90;61.30
36280;DHT22;22317;47.936;12.742;2022-08-19T05:34:15;17.90;61.40
36280;DHT22;22317;47.936;12.742;2022-08-19T05:36:43;17.90;61.40
36280;DHT22;22317;47.936;12.742;2022-08-19T05:39:14;17.90;61.30
36280;DHT22;22317;47.936;12.742;2022-08-19T05:41:44;17.80;61.20
36280;DHT22;22317;47.936;12.742;2022-08-19T05:44:10;17.80;61.90
36280;DHT22;22317;47.936;12.742;2022-08-19T05:46:37;18.20;61.40
36280;DHT22;22317;47.936;12.742;2022-08-19T05:49:07;17.70;61.20
36280;DHT22;22317;47.936;12.742;2022-08-19T05:51:34;17.70;61.20
36280;DHT22;22317;47.936;12.742;2022-08-19T05:54:02;17.60;61.20
36280;DHT22;22317;47.936;12.742;2022-08-19T05:56:28;17.60;61.30
36280;DHT22;22317;47.936;12.742;2022-08-19T05:58:57;17.50;61.30
36280;DHT22;22317;47.936;12.742;2022-08-19T06:01:25;17.50;61.50
36280;DHT22;22317;47.936;12.742;2022-08-19T06:03:51;17.50;61.70
36280;DHT22;22317;47.936;12.742;2022-08-19T06:06:18;17.50;61.60
36280;DHT22;22317;47.936;12.742;2022-08-19T06:08:44;17.50;61.00
36280;DHT22;22317;47.936;12.742;2022-08-19T06:11:40;17.40;61.50
36280;DHT22;22317;47.936;12.742;2022-08-19T06:14:09;17.50;61.80
36280;DHT22;22317;47.936;12.742;2022-08-19T06:16:37;17.50;61.60
36280;DHT22;22317;47.936;12.742;2022-08-19T06:19:11;17.40;61.50
36280;DHT22;22317;47.936;12.742;2022-08-19T06:21:39;17.40;61.70
36280;DHT22;22317;47.936;12.742;2022-08-19T06:24:08;17.40;61.70
36280;DHT22;22317;47.936;12.742;2022-08-19T06:26:37;17.50;61.80
36280;DHT22;22317;47.936;12.742;2022-08-19T06:29:05;17.50;61.90
36280;DHT22;22317;47.936;12.742;2022-08-19T06:31:33;17.50;61.80
36280;DHT22;22317;47.936;12.742;2022-08-19T06:34:01;17.60;61.80
36280;DHT22;22317;47.936;12.742;2022-08-19T06:36:36;17.60;61.80
36280;DHT22;22317;47.936;12.742;2022-08-19T06:39:08;17.70;62.00
36280;DHT22;22317;47.936;12.742;2022-08-19T06:41:42;17.80;62.20
36280;DHT22;22317;47.936;12.742;2022-08-19T06:44:16;17.90;62.00
36280;DHT22;22317;47.936;12.742;2022-08-19T06:46:43;18.00;61.70
36280;DHT22;22317;47.936;12.742;2022-08-19T06:49:09;18.10;61.40
36280;DHT22;22317;47.936;12.742;2022-08-19T06:51:43;18.20;61.10
36280;DHT22;22317;47.936;12.742;2022-08-19T06:54:10;18.20;60.70
36280;DHT22;22317;47.936;12.742;2022-08-19T06:56:37;18.30;61.20
36280;DHT22;22317;47.936;12.742;2022-08-19T06:59:09;18.30;60.10
36280;DHT22;22317;47.936;12.742;2022-08-19T07:01:38;18.30;60.00
36280;DHT22;22317;47.936;12.742;2022-08-19T07:04:08;18.30;60.20
36280;DHT22;22317;47.936;12.742;2022-08-19T07:06:35;18.30;60.10
36280;DHT22;22317;47.936;12.742;2022-08-19T07:09:02;18.40;60.00
36280;DHT22;22317;47.936;12.742;2022-08-19T07:11:28;18.50;59.90
36280;DHT22;22317;47.936;12.742;2022-08-19T07:13:54;18.60;59.80
36280;DHT22;22317;47.936;12.742;2022-08-19T07:16:21;18.60;59.60
36280;DHT22;22317;47.936;12.742;2022-08-19T07:18:49;18.70;59.10
36280;DHT22;22317;47.936;12.742;2022-08-19T07:21:23;18.70;59.50
36280;DHT22;22317;47.936;12.742;2022-08-19T07:23:50;18.70;59.20
36280;DHT22;22317;47.936;12.742;2022-08-19T07:26:30;18.80;59.00
36280;DHT22;22317;47.936;12.742;2022-08-19T07:28:58;18.80;58.90
36280;DHT22;22317;47.936;12.742;2022-08-19T07:31:26;18.80;58.80
36280;DHT22;22317;47.936;12.742;2022-08-19T07:33:54;18.70;58.70
36280;DHT22;22317;47.936;12.742;2022-08-19T07:36:26;18.70;58.70
36280;DHT22;22317;47.936;12.742;2022-08-19T07:38:56;18.70;58.70
36280;DHT22;22317;47.936;12.742;2022-08-19T07:41:24;18.80;58.80
36280;DHT22;22317;47.936;12.742;2022-08-19T07:43:51;18.80;58.70
36280;DHT22;22317;47.936;12.742;2022-08-19T07:46:18;18.80;58.80
36280;DHT22;22317;47.936;12.742;2022-08-19T07:48:47;18.70;58.00
36280;DHT22;22317;47.936;12.742;2022-08-19T07:51:19;18.80;58.50
36280;DHT22;22317;47.936;12.742;2022-08-19T07:53:47;18.80;58.50
36280;DHT22;22317;47.936;12.742;2022-08-19T07:56:14;18.80;58.30
36280;DHT22;22317;47.936;12.742;2022-08-19T07:58:43;18.70;57.40
36280;DHT22;22317;47.936;12.742;2022-08-19T08:01:11;18.70;57.90
36280;DHT22;22317;47.936;12.742;2022-08-19T08:03:37;18.60;58.00
36280;DHT22;22317;47.936;12.742;2022-08-19T08:06:21;18.50;58.30
36280;DHT22;22317;47.936;12.742;2022-08-19T08:09:06;18.50;58.60
36280;DHT22;22317;47.936;12.742;2022-08-19T08:11:46;18.60;58.90
36280;DHT22;22317;47.936;12.742;2022-08-19T08:14:23;18.70;58.90
36280;DHT22;22317;47.936;12.742;2022-08-19T08:16:50;18.90;58.90
36280;DHT22;22317;47.936;12.742;2022-08-19T08:19:19;19.10;58.90
36280;DHT22;22317;47.936;12.742;2022-08-19T08:21:47;19.30;58.70
36280;DHT22;22317;47.936;12.742;2022-08-19T08:24:13;19.30;58.30
36280;DHT22;22317;47.936;12.742;2022-08-19T08:26:39;19.40;57.90
36280;DHT22;22317;47.936;12.742;2022-08-19T08:29:06;19.40;57.50
36280;DHT22;22317;47.936;12.742;2022-08-19T08:31:36;19.40;57.50
36280;DHT22;22317;47.936;12.742;2022-08-19T08:34:02;19.40;57.50
36280;DHT22;22317;47.936;12.742;2022-08-19T08:36:28;19.40;57.30
36280;DHT22;22317;47.936;12.742;2022-08-19T08:38:54;19.40;57.30
36280;DHT22;22317;47.936;12.742;2022-08-19T08:43:58;19.50;57.30
36280;DHT22;22317;47.936;12.742;2022-08-19T08:46:46;19.50;56.70
36280;DHT22;22317;47.936;12.742;2022-08-19T08:49:41;19.50;56.80
36280;DHT22;22317;47.936;12.742;2022-08-19T08:52:19;19.50;56.70
36280;DHT22;22317;47.936;12.742;2022-08-19T08:54:49;19.50;56.80
36280;DHT22;22317;47.936;12.742;2022-08-19T08:57:26;19.40;56.80
36280;DHT22;22317;47.936;12.742;2022-08-19T08:59:54;19.40;56.70
36280;DHT22;22317;47.936;12.742;2022-08-19T09:02:22;21.60;58.30
36280;DHT22;22317;47.936;12.742;2022-08-19T09:04:48;19.40;56.90
36280;DHT22;22317;47.936;12.742;2022-08-19T09:09:57;19.40;56.80
36280;DHT22;22317;47.936;12.742;2022-08-19T09:12:42;19.40;57.10
36280;DHT22;22317;47.936;12.742;2022-08-19T09:15:12;19.50;57.10
36280;DHT22;22317;47.936;12.742;2022-08-19T09:17:38;19.60;56.80
36280;DHT22;22317;47.936;12.742;2022-08-19T09:22:33;19.70;56.80
36280;DHT22;22317;47.936;12.742;2022-08-19T09:24:59;19.70;56.50
36280;DHT22;22317;47.936;12.742;2022-08-19T09:27:26;19.80;56.40
36280;DHT22;22317;47.936;12.742;2022-08-19T09:29:52;19.70;56.10
36280;DHT22;22317;47.936;12.742;2022-08-19T09:32:20;19.70;56.00
36280;DHT22;22317;47.936;12.742;2022-08-19T09:34:46;19.70;56.00
36280;DHT22;22317;47.936;12.742;2022-08-19T09:37:12;19.60;55.90
36280;DHT22;22317;47.936;12.742;2022-08-19T09:39:38;19.60;56.00
36280;DHT22;22317;47.936;12.742;2022-08-19T09:42:07;19.50;56.00
36280;DHT22;22317;47.936;12.742;2022-08-19T09:44:41;19.60;56.20
36280;DHT22;22317;47.936;12.742;2022-08-19T09:47:08;19.60;56.10
36280;DHT22;22317;47.936;12.742;2022-08-19T09:49:34;19.60;56.30
36280;DHT22;22317;47.936;12.742;2022-08-19T09:52:00;19.70;56.30
36280;DHT22;22317;47.936;12.742;2022-08-19T09:54:27;19.80;56.20
36280;DHT22;22317;47.936;12.742;2022-08-19T09:56:54;20.00;56.50
36280;DHT22;22317;47.936;12.742;2022-08-19T09:59:20;20.20;56.50
36280;DHT22;22317;47.936;12.742;2022-08-19T10:01:46;20.40;56.30
36280;DHT22;22317;47.936;12.742;2022-08-19T10:04:12;20.70;56.00
36280;DHT22;22317;47.936;12.742;2022-08-19T10:06:39;20.90;55.60
36280;DHT22;22317;47.936;12.742;2022-08-19T10:09:06;21.10;55.20
36280;DHT22;22317;47.936;12.742;2022-08-19T10:11:33;21.30;55.00
36280;DHT22;22317;47.936;12.742;2022-08-19T10:14:01;21.40;54.30
36280;DHT22;22317;47.936;12.742;2022-08-19T10:16:27;21.60;54.00
36280;DHT22;22317;47.936;12.742;2022-08-19T10:18:53;21.70;54.00
36280;DHT22;22317;47.936;12.742;2022-08-19T10:21:22;21.80;53.60
36280;DHT22;22317;47.936;12.742;2022-08-19T10:23:50;21.90;52.60
36280;DHT22;22317;47.936;12.742;2022-08-19T10:26:19;21.90;52.70
36280;DHT22;22317;47.936;12.742;2022-08-19T10:28:45;21.90;51.90
36280;DHT22;22317;47.936;12.742;2022-08-19T10:31:21;21.90;52.20
36280;DHT22;22317;47.936;12.742;2022-08-19T10:33:49;21.80;51.90
36280;DHT22;22317;47.936;12.742;2022-08-19T10:36:20;21.70;51.90
36280;DHT22;22317;47.936;12.742;2022-08-19T10:38:50;21.60;51.60
36280;DHT22;22317;47.936;12.742;2022-08-19T10:41:18;21.60;52.10
36280;DHT22;22317;47.936;12.742;2022-08-19T10:43:49;21.70;52.20
36280;DHT22;22317;47.936;12.742;2022-08-19T10:46:18;21.80;52.20
36280;DHT22;22317;47.936;12.742;2022-08-19T10:48:44;22.20;52.00
36280;DHT22;22317;47.936;12.742;2022-08-19T10:51:11;22.20;52.20
36280;DHT22;22317;47.936;12.742;2022-08-19T10:53:56;22.30;51.70
36280;DHT22;22317;47.936;12.742;2022-08-19T10:56:22;22.40;51.20
36280;DHT22;22317;47.936;12.742;2022-08-19T10:59:07;22.50;51.10
36280;DHT22;22317;47.936;12.742;2022-08-19T11:01:33;22.60;51.00
36280;DHT22;22317;47.936;12.742;2022-08-19T11:04:01;22.60;50.40
36280;DHT22;22317;47.936;12.742;2022-08-19T11:06:28;22.60;50.20
36280;DHT22;22317;47.936;12.742;2022-08-19T11:08:55;22.70;50.40
36280;DHT22;22317;47.936;12.742;2022-08-19T11:11:22;22.90;50.40
36280;DHT22;22317;47.936;12.742;2022-08-19T11:13:48;23.00;50.10
36280;DHT22;22317;47.936;12.742;2022-08-19T11:16:22;23.30;50.20
36280;DHT22;22317;47.936;12.742;2022-08-19T11:18:52;23.80;49.70
36280;DHT22;22317;47.936;12.742;2022-08-19T11:21:24;23.90;49.70
36280;DHT22;22317;47.936;12.742;2022-08-19T11:23:53;24.10;48.70
36280;DHT22;22317;47.936;12.742;2022-08-19T11:26:20;24.20;47.90
36280;DHT22;22317;47.936;12.742;2022-08-19T11:28:47;24.40;47.60
36280;DHT22;22317;47.936;12.742;2022-08-19T11:31:18;24.40;47.80
36280;DHT22;22317;47.936;12.742;2022-08-19T11:33:44;24.60;47.60
36280;DHT22;22317;47.936;12.742;2022-08-19T11:36:11;24.90;47.40
36280;DHT22;22317;47.936;12.742;2022-08-19T11:38:38;25.30;46.50
36280;DHT22;22317;47.936;12.742;2022-08-19T11:41:06;25.30;46.60
36280;DHT22;22317;47.936;12.742;2022-08-19T11:43:35;25.60;46.10
36280;DHT22;22317;47.936;12.742;2022-08-19T11:48:32;25.90;43.90
36280;DHT22;22317;47.936;12.742;2022-08-19T11:50:58;25.80;43.90
36280;DHT22;22317;47.936;12.742;2022-08-19T11:53:24;25.80;44.10
36280;DHT22;22317;47.936;12.742;2022-08-19T11:55:53;25.80;43.70
36280;DHT22;22317;47.936;12.742;2022-08-19T11:58:21;25.80;43.60
36280;DHT22;22317;47.936;12.742;2022-08-19T12:00:47;25.80;43.50
36280;DHT22;22317;47.936;12.742;2022-08-19T12:03:13;25.80;43.50
36280;DHT22;22317;47.936;12.742;2022-08-19T12:05:40;25.80;43.40
36280;DHT22;22317;47.936;12.742;2022-08-19T12:08:07;25.90;43.10
36280;DHT22;22317;47.936;12.742;2022-08-19T12:10:34;25.80;42.80
36280;DHT22;22317;47.936;12.742;2022-08-19T12:13:00;25.70;42.70
36280;DHT22;22317;47.936;12.742;2022-08-19T12:15:27;25.60;42.80
36280;DHT22;22317;47.936;12.742;2022-08-19T12:17:55;25.50;42.70
36280;DHT22;22317;47.936;12.742;2022-08-19T12:20:23;25.50;42.80
36280;DHT22;22317;47.936;12.742;2022-08-19T12:22:49;25.50;42.90
36280;DHT22;22317;47.936;12.742;2022-08-19T12:25:16;25.40;42.80
36280;DHT22;22317;47.936;12.742;2022-08-19T12:27:42;25.40;42.80
36280;DHT22;22317;47.936;12.742;2022-08-19T12:30:10;25.30;42.80
36280;DHT22;22317;47.936;12.742;2022-08-19T12:32:37;25.40;43.10
36280;DHT22;22317;47.936;12.742;2022-08-19T12:35:04;25.50;43.20
36280;DHT22;22317;47.936;12.742;2022-08-19T12:37:30;25.60;43.10
36280;DHT22;22317;47.936;12.742;2022-08-19T12:39:58;25.60;43.10
36280;DHT22;22317;47.936;12.742;2022-08-19T12:42:24;25.70;43.10
36280;DHT22;22317;47.936;12.742;2022-08-19T12:44:50;25.80;42.90
36280;DHT22;22317;47.936;12.742;2022-08-19T12:47:17;25.90;43.20
36280;DHT22;22317;47.936;12.742;2022-08-19T12:49:43;26.00;42.60
36280;DHT22;22317;47.936;12.742;2022-08-19T12:52:10;26.10;42.50
36280;DHT22;22317;47.936;12.742;2022-08-19T12:54:37;26.20;42.30
36280;DHT22;22317;47.936;12.742;2022-08-19T12:57:07;26.30;42.00
36280;DHT22;22317;47.936;12.742;2022-08-19T12:59:35;26.30;41.60
36280;DHT22;22317;47.936;12.742;2022-08-19T13:02:05;26.30;41.30
36280;DHT22;22317;47.936;12.742;2022-08-19T13:04:32;26.20;41.00
36280;DHT22;22317;47.936;12.742;2022-08-19T13:07:00;26.10;40.90
36280;DHT22;22317;47.936;12.742;2022-08-19T13:09:26;26.00;40.90
36280;DHT22;22317;47.936;12.742;2022-08-19T13:11:52;25.90;41.00
36280;DHT22;22317;47.936;12.742;2022-08-19T13:14:18;25.90;41.20
36280;DHT22;22317;47.936;12.742;2022-08-19T13:16:44;26.00;41.40
36280;DHT22;22317;47.936;12.742;2022-08-19T13:19:09;26.10;41.10
36280;DHT22;22317;47.936;12.742;2022-08-19T13:21:37;26.00;41.10
36280;DHT22;22317;47.936;12.742;2022-08-19T13:24:03;26.00;41.10
36280;DHT22;22317;47.936;12.742;2022-08-19T13:26:29;25.90;40.80
36280;DHT22;22317;47.936;12.742;2022-08-19T13:28:55;25.80;40.70
36280;DHT22;22317;47.936;12.742;2022-08-19T13:31:40;25.80;40.70
36280;DHT22;22317;47.936;12.742;2022-08-19T13:34:35;25.60;40.40
36280;DHT22;22317;47.936;12.742;2022-08-19T13:37:03;25.40;40.60
36280;DHT22;22317;47.936;12.742;2022-08-19T13:39:30;25.30;41.00
36280;DHT22;22317;47.936;12.742;2022-08-19T13:41:58;25.20;41.00
36280;DHT22;22317;47.936;12.742;2022-08-19T13:44:27;25.10;41.10
36280;DHT22;22317;47.936;12.742;2022-08-19T13:47:00;25.00;41.30
36280;DHT22;22317;47.936;12.742;2022-08-19T13:49:28;24.90;41.40
36280;DHT22;22317;47.936;12.742;2022-08-19T13:51:56;24.70;41.50
36280;DHT22;22317;47.936;12.742;2022-08-19T13:54:22;24.70;41.70
36280;DHT22;22317;47.936;12.742;2022-08-19T13:56:48;24.60;41.80
36280;DHT22;22317;47.936;12.742;2022-08-19T13:59:14;24.50;42.00
36280;DHT22;22317;47.936;12.742;2022-08-19T14:01:40;24.50;42.10
36280;DHT22;22317;47.936;12.742;2022-08-19T14:04:07;24.40;42.10
36280;DHT22;22317;47.936;12.742;2022-08-19T14:06:33;24.40;42.30
36280;DHT22;22317;47.936;12.742;2022-08-19T14:08:59;24.30;42.30
36280;DHT22;22317;47.936;12.742;2022-08-19T14:11:27;24.20;42.30
36280;DHT22;22317;47.936;12.742;2022-08-19T14:13:53;24.10;42.20
36280;DHT22;22317;47.936;12.742;2022-08-19T14:16:19;24.00;42.30
36280;DHT22;22317;47.936;12.742;2022-08-19T14:18:47;23.70;42.20
36280;DHT22;22317;47.936;12.742;2022-08-19T14:21:23;23.70;43.40
36280;DHT22;22317;47.936;12.742;2022-08-19T14:23:50;23.60;43.10
36280;DHT22;22317;47.936;12.742;2022-08-19T14:26:18;23.50;43.30
36280;DHT22;22317;47.936;12.742;2022-08-19T14:28:44;23.30;43.30
36280;DHT22;22317;47.936;12.742;2022-08-19T14:31:12;23.30;44.10
36280;DHT22;22317;47.936;12.742;2022-08-19T14:33:42;23.20;44.40
36280;DHT22;22317;47.936;12.742;2022-08-19T14:36:08;23.10;44.70
36280;DHT22;22317;47.936;12.742;2022-08-19T14:38:34;22.90;44.80
36280;DHT22;22317;47.936;12.742;2022-08-19T14:43:36;22.90;46.40
36280;DHT22;22317;47.936;12.742;2022-08-19T14:46:01;22.80;46.50
36280;DHT22;22317;47.936;12.742;2022-08-19T14:48:27;22.70;46.90
36280;DHT22;22317;47.936;12.742;2022-08-19T14:50:53;22.60;47.10
36280;DHT22;22317;47.936;12.742;2022-08-19T14:53:19;22.60;47.10
36280;DHT22;22317;47.936;12.742;2022-08-19T14:55:45;22.40;46.60
36280;DHT22;22317;47.936;12.742;2022-08-19T14:58:12;22.10;46.60
36280;DHT22;22317;47.936;12.742;2022-08-19T15:00:38;21.90;46.90
36280;DHT22;22317;47.936;12.742;2022-08-19T15:03:03;21.70;47.10
36280;DHT22;22317;47.936;12.742;2022-08-19T15:05:29;21.50;47.30
36280;DHT22;22317;47.936;12.742;2022-08-19T15:07:55;21.30;47.60
36280;DHT22;22317;47.936;12.742;2022-08-19T15:10:23;21.10;47.40
36280;DHT22;22317;47.936;12.742;2022-08-19T15:12:50;20.90;48.30
36280;DHT22;22317;47.936;12.742;2022-08-19T15:15:16;20.70;48.90
36280;DHT22;22317;47.936;12.742;2022-08-19T15:17:44;20.60;49.60
36280;DHT22;22317;47.936;12.742;2022-08-19T15:20:18;20.50;50.20
36280;DHT22;22317;47.936;12.742;2022-08-19T15:22:44;20.30;50.90
36280;DHT22;22317;47.936;12.742;2022-08-19T15:25:12;20.20;51.50
36280;DHT22;22317;47.936;12.742;2022-08-19T15:27:39;20.20;52.10
36280;DHT22;22317;47.936;12.742;2022-08-19T15:30:06;20.10;52.30
36280;DHT22;22317;47.936;12.742;2022-08-19T15:32:33;20.10;52.60
36280;DHT22;22317;47.936;12.742;2022-08-19T15:35:00;20.10;52.90